Data for 12/17/2008

Time Sea-Level Adjusted Pressure Absolute Pressure Temperature Relative Humidity Dew Point   
(mb) (inHg) (mb) (inHg) (C) (F) (%) (C) (F)
00:05 1011 29.85 840 24.81 -21.3 -6.3 77 -24.3 -11.8
00:10 1011 29.85 840 24.81 -21.1 -5.9 76 -24.2 -11.6
00:15 1011 29.85 840 24.81 -20.6 -5.1 77 -23.6 -10.5
00:20 1011 29.85 840 24.81 -20.4 -4.6 76 -23.5 -10.4
00:25 1011 29.85 840 24.81 -20.6 -5 80 -23.1 -9.6
00:30 1011 29.85 840 24.81 -20.1 -4.2 76 -23.3 -10
00:35 1011 29.85 840 24.81 -20.5 -4.9 74 -24 -11.2
00:40 1011 29.85 840 24.81 -21.4 -6.5 79 -24.1 -11.4
00:45 1011 29.85 840 24.81 -21.2 -6.1 78 -24.1 -11.3
00:50 1011 29.85 840 24.81 -21.1 -5.9 80 -23.7 -10.6
00:55 1011 29.85 840 24.81 -21 -5.7 78 -23.8 -10.8
01:00 1011 29.85 840 24.81 -21.1 -5.9 77 -24.2 -11.5
01:05 1011 29.85 840 24.81 -21.2 -6.2 75 -24.5 -12.1
01:10 1011 29.85 840 24.81 -21.4 -6.5 76 -24.6 -12.3
01:15 1011 29.85 840 24.81 -21.7 -7 76 -24.8 -12.7
01:20 1011 29.85 840 24.81 -21.9 -7.5 76 -25.1 -13.1
01:25 1011 29.85 840 24.81 -22 -7.6 81 -24.5 -12.1
01:30 1011 29.85 840 24.81 -21.8 -7.2 80 -24.3 -11.8
01:35 1011 29.85 840 24.81 -21.4 -6.5 81 -23.9 -11
01:40 1011 29.85 840 24.81 -21.4 -6.4 79 -24.1 -11.3
01:45 1011 29.85 840 24.81 -21.5 -6.7 82 -23.8 -10.8
01:50 1011 29.85 840 24.81 -21.4 -6.6 85 -23.4 -10.1
01:55 1011 29.85 840 24.81 -21.4 -6.5 81 -23.8 -10.8
02:00 1011 29.85 840 24.81 -21.7 -7 83 -23.9 -11
02:05 1011 29.85 840 24.81 -21.7 -7 81 -24.1 -11.4
02:10 1011 29.85 840 24.81 -21.7 -7.1 78 -24.5 -12.1
02:15 1011 29.85 840 24.81 -22 -7.7 81 -24.5 -12.2
02:20 1011 29.85 840 24.81 -21.8 -7.2 87 -23.5 -10.2
02:25 1011 29.85 840 24.81 -20.8 -5.5 85 -22.7 -8.9
02:30 1011 29.85 840 24.81 -20.4 -4.6 79 -23 -9.5
02:35 1011 29.85 840 24.81 -20.6 -5 81 -23 -9.4
02:40 1011 29.85 840 24.81 -20.4 -4.7 81 -22.8 -9.1
02:45 1011 29.85 840 24.81 -20.2 -4.4 83 -22.3 -8.2
02:50 1011 29.85 840 24.81 -19.7 -3.4 80 -22.3 -8.1
02:55 1011 29.85 840 24.81 -19.8 -3.6 80 -22.3 -8.2
03:00 1011 29.85 840 24.81 -19.6 -3.3 81 -22 -7.7
03:05 1011 29.85 840 24.81 -19.5 -3.1 81 -22 -7.6
03:10 1011 29.85 840 24.81 -19.5 -3 83 -21.6 -6.9
03:15 1011 29.85 840 24.81 -19.2 -2.5 79 -21.9 -7.4
03:20 1011 29.85 840 24.81 -19 -2.1 81 -21.5 -6.7
03:25 1010 29.83 840 24.81 -18.3 -1 77 -21.4 -6.5
03:30 1011 29.85 840 24.81 -18.3 -1 80 -20.9 -5.7
03:35 1011 29.85 840 24.81 -17.9 -0.2 80 -20.6 -5
03:40 1010 29.83 840 24.81 -17.6 0.3 78 -20.5 -4.9
03:45 1010 29.83 840 24.81 -17.4 0.7 77 -20.5 -4.8
03:50 1010 29.83 840 24.81 -17.4 0.8 78 -20.3 -4.5
03:55 1010 29.83 840 24.81 -17.1 1.2 76 -20.4 -4.7
04:00 1010 29.83 840 24.81 -17 1.3 74 -20.6 -5.1
04:05 1010 29.83 840 24.81 -17.4 0.8 76 -20.6 -5
04:10 1010 29.83 840 24.81 -17 1.4 76 -20.3 -4.6
04:15 1010 29.83 839 24.78 -17.2 1.1 75 -20.6 -5.1
04:20 1010 29.83 839 24.78 -18 -0.4 80 -20.7 -5.3
04:25 1010 29.83 839 24.78 -17.6 0.3 78 -20.6 -5
04:30 1010 29.83 839 24.78 -17.5 0.6 77 -20.5 -4.9
04:35 1010 29.83 839 24.78 -17.4 0.8 77 -20.4 -4.8
04:40 1010 29.83 839 24.78 -16.9 1.5 75 -20.4 -4.7
04:45 1010 29.83 839 24.78 -16.9 1.6 74 -20.5 -4.9
04:50 1010 29.83 839 24.78 -17.2 1.1 75 -20.6 -5
04:55 1010 29.83 839 24.78 -17.4 0.7 74 -20.9 -5.7
05:00 1009 29.8 839 24.78 -17.9 -0.1 78 -20.8 -5.5
05:05 1009 29.8 839 24.78 -18.1 -0.5 76 -21.3 -6.3
05:10 1009 29.8 839 24.78 -17.4 0.7 74 -21 -5.8
05:15 1009 29.8 839 24.78 -17.1 1.3 73 -20.8 -5.4
05:20 1009 29.8 838 24.75 -16.5 2.3 74 -20.2 -4.3
05:25 1009 29.8 838 24.75 -16.5 2.3 74 -20.2 -4.3
05:30 1009 29.8 838 24.75 -16.7 2 75 -20.2 -4.3
05:35 1009 29.8 838 24.75 -16.9 1.6 75 -20.4 -4.7
05:40 1009 29.8 838 24.75 -16.5 2.2 75 -20.1 -4.1
05:45 1009 29.8 838 24.75 -16.3 2.8 74 -19.9 -3.9
05:50 1009 29.8 838 24.75 -16.1 3.1 73 -19.8 -3.7
05:55 1009 29.8 838 24.75 -16.2 2.9 71 -20.3 -4.6
06:00 1009 29.8 838 24.75 -16 3.3 74 -19.6 -3.3
06:05 1009 29.8 838 24.75 -15.2 4.6 71 -19.3 -2.7
06:10 1009 29.8 838 24.75 -14.9 5.2 70 -19.1 -2.5
06:15 1009 29.8 838 24.75 -15 5.1 71 -19.1 -2.4
06:20 1009 29.8 838 24.75 -15.1 4.8 71 -19.3 -2.7
06:25 1009 29.8 838 24.75 -15.4 4.3 71 -19.6 -3.2
06:30 1009 29.8 838 24.75 -15.4 4.2 73 -19.3 -2.7
06:35 1009 29.8 838 24.75 -14.7 5.5 69 -19.2 -2.6
06:40 1009 29.8 838 24.75 -14.4 6.2 69 -18.9 -1.9
06:45 1009 29.8 838 24.75 -14.5 5.9 70 -18.8 -1.9
06:50 1009 29.8 838 24.75 -15.3 4.4 72 -19.3 -2.7
06:55 1009 29.8 838 24.75 -16.1 3 77 -19.3 -2.7
07:00 1009 29.8 838 24.75 -16 3.2 74 -19.6 -3.4
07:05 1009 29.8 838 24.75 -15.4 4.4 70 -19.7 -3.4
07:10 1009 29.8 838 24.75 -14.8 5.3 69 -19.4 -2.8
07:15 1009 29.8 838 24.75 -15.3 4.5 71 -19.4 -3
07:20 1009 29.8 838 24.75 -15.7 3.7 74 -19.4 -3
07:25 1009 29.8 838 24.75 -15.2 4.6 71 -19.4 -2.8
07:30 1009 29.8 838 24.75 -14.6 5.8 70 -18.9 -2
07:35 1009 29.8 838 24.75 -15.3 4.5 77 -18.5 -1.3
07:40 1009 29.8 838 24.75 -15.3 4.4 72 -19.4 -2.9
07:45 1009 29.8 838 24.75 -14.5 5.8 69 -19 -2.2
07:50 1009 29.8 838 24.75 -14.9 5.1 72 -18.9 -2.1
07:55 1009 29.8 838 24.75 -15.6 3.9 69 -20 -4
08:00 1009 29.8 838 24.75 -15.8 3.6 74 -19.4 -2.9
08:05 1009 29.8 838 24.75 -15.7 3.7 76 -19.1 -2.3
08:10 1009 29.8 838 24.75 -15 4.9 77 -18.2 -0.8
08:15 1009 29.8 838 24.75 -14.3 6.2 74 -18 -0.4
08:20 1009 29.8 838 24.75 -13.5 7.6 71 -17.7 0.2
08:25 1009 29.8 838 24.75 -13.3 8.1 70 -17.7 0.2
08:30 1009 29.8 838 24.75 -12.6 9.4 67 -17.6 0.4
08:35 1009 29.8 838 24.75 -12.3 9.8 65 -17.6 0.4
08:40 1009 29.8 838 24.75 -12.1 10.3 64 -17.5 0.5
08:45 1009 29.8 838 24.75 -11.7 11 70 -16.1 3
08:50 1009 29.8 838 24.75 -12.2 10 67 -17.2 1.1
08:55 1009 29.8 838 24.75 -12.2 10 67 -17.2 1
09:00 1009 29.8 838 24.75 -12.1 10.2 69 -16.8 1.8
09:05 1009 29.8 838 24.75 -12.1 10.2 70 -16.6 2.1
09:10 1009 29.8 839 24.78 -12.1 10.2 69 -16.6 2.1
09:15 1009 29.8 839 24.78 -13.1 8.5 73 -16.9 1.5
09:20 1009 29.8 838 24.75 -13.3 8 73 -17.2 1
09:25 1009 29.8 839 24.78 -13.2 8.2 73 -17.1 1.2
09:30 1009 29.8 839 24.78 -13.5 7.8 74 -17.2 1.1
09:35 1009 29.8 839 24.78 -13.7 7.4 76 -17 1.3
09:40 1009 29.8 839 24.78 -13.8 7.2 78 -16.8 1.7
09:45 1009 29.8 838 24.75 -13.5 7.7 77 -16.7 1.9
09:50 1009 29.8 838 24.75 -12.9 8.9 75 -16.5 2.4
09:55 1009 29.8 838 24.75 -12.6 9.3 78 -15.7 3.7
10:00 1009 29.8 838 24.75 -12.6 9.3 77 -15.8 3.5
10:05 1009 29.8 838 24.75 -12.2 10 77 -15.5 4.1
10:10 1009 29.8 838 24.75 -12.1 10.3 76 -15.4 4.2
10:15 1009 29.8 838 24.75 -12.1 10.3 73 -15.9 3.3
10:20 1009 29.8 838 24.75 -11.4 11.5 69 -16.1 3.1
10:25 1009 29.8 838 24.75 -10.9 12.4 71 -15.2 4.6
10:30 1009 29.8 838 24.75 -10.6 12.9 67 -15.5 4
10:35 1009 29.8 839 24.78 -10.2 13.6 64 -15.8 3.5
10:40 1009 29.8 839 24.78 -9.8 14.4 68 -14.6 5.8
10:45 1009 29.8 838 24.75 -9.7 14.5 69 -14.4 6
10:50 1009 29.8 838 24.75 -9.7 14.6 69 -14.4 6.2
10:55 1009 29.8 839 24.78 -9.9 14.2 68 -14.8 5.4
11:00 1009 29.8 839 24.78 -10 14 67 -15.1 4.8
11:05 1010 29.83 839 24.78 -9.9 14.3 69 -14.6 5.8
11:10 1010 29.83 839 24.78 -9.6 14.7 64 -15.1 4.7
11:15 1010 29.83 839 24.78 -9.1 15.7 63 -14.8 5.3
11:20 1010 29.83 839 24.78 -8.3 17.1 56 -15.6 4
11:25 1010 29.83 839 24.78 -7.7 18.1 56 -15.1 4.9
11:30 1010 29.83 839 24.78 -7.6 18.2 58 -14.5 5.9
11:35 1010 29.83 839 24.78 -8.3 17.1 60 -14.7 5.6
11:40 1010 29.83 839 24.78 -8.8 16.3 59 -15.3 4.4
11:45 1010 29.83 839 24.78 -9 15.9 61 -15.3 4.5
11:50 1010 29.83 839 24.78 -8.9 16 58 -15.8 3.5
11:55 1010 29.83 839 24.78 -8.7 16.4 58 -15.6 3.9
12:00 1010 29.83 839 24.78 -8.6 16.6 54 -16.3 2.6
12:05 1010 29.83 839 24.78 -8.3 17 54 -16.1 3
12:10 1010 29.83 839 24.78 -8.1 17.5 52 -16.2 2.9
12:15 1010 29.83 839 24.78 -8 17.6 54 -15.8 3.6
12:20 1010 29.83 839 24.78 -7.8 17.9 54 -15.7 3.7
12:25 1010 29.83 839 24.78 -7.6 18.4 53 -15.5 4
12:30 1010 29.83 839 24.78 -7.2 19.1 51 -15.6 3.9
12:35 1010 29.83 839 24.78 -7.1 19.2 50 -15.9 3.3
12:40 1010 29.83 839 24.78 -6.6 20.1 48 -15.8 3.5
12:45 1010 29.83 839 24.78 -6.2 20.8 49 -15.2 4.7
12:50 1010 29.83 839 24.78 -6.1 21 51 -14.8 5.4
12:55 1010 29.83 839 24.78 -6.1 21 48 -15.4 4.4
13:00 1010 29.83 839 24.78 -5.9 21.5 46 -15.7 3.8
13:05 1010 29.83 839 24.78 -5.1 22.8 44 -15.5 4.1
13:10 1010 29.83 839 24.78 -4.3 24.3 41 -15.6 3.9
13:15 1010 29.83 839 24.78 -3.9 24.9 44 -14.6 5.8
13:20 1010 29.83 839 24.78 -4.1 24.5 43 -15 5
13:25 1010 29.83 839 24.78 -4.1 24.7 42 -15.3 4.5
13:30 1010 29.83 839 24.78 -3.9 25 44 -14.5 5.8
13:35 1010 29.83 839 24.78 -4 24.9 45 -14.2 6.5
13:40 1010 29.83 839 24.78 -4.6 23.8 49 -13.9 7
13:45 1010 29.83 839 24.78 -5 23 47 -14.6 5.8
13:50 1010 29.83 839 24.78 -4.7 23.6 46 -14.7 5.5
13:55 1010 29.83 839 24.78 -4.6 23.8 46 -14.6 5.7
14:00 1010 29.83 839 24.78 -4.5 24 45 -14.6 5.7
14:05 1010 29.83 839 24.78 -4.4 24 46 -14.4 6.1
14:10 1010 29.83 839 24.78 -4.4 24.1 46 -14.5 6
14:15 1010 29.83 839 24.78 -4.2 24.5 46 -14.1 6.7
14:20 1010 29.83 839 24.78 -4.2 24.4 49 -13.5 7.8
14:25 1010 29.83 839 24.78 -4.6 23.8 50 -13.6 7.6
14:30 1010 29.83 839 24.78 -4.6 23.7 51 -13.2 8.3
14:35 1010 29.83 839 24.78 -4.4 24.1 50 -13.3 8.1
14:40 1010 29.83 839 24.78 -4.5 23.9 50 -13.5 7.8
14:45 1010 29.83 839 24.78 -4.7 23.5 50 -13.6 7.5
14:50 1010 29.83 839 24.78 -4.7 23.5 51 -13.3 8.1
14:55 1010 29.83 839 24.78 -4.8 23.4 50 -13.7 7.4
15:00 1010 29.83 839 24.78 -5 23 51 -13.6 7.5
15:05 1010 29.83 839 24.78 -4.9 23.1 50 -13.8 7.1
15:10 1010 29.83 839 24.78 -4.7 23.5 47 -14.5 5.9
15:15 1010 29.83 839 24.78 -4.6 23.6 48 -14.1 6.6
15:20 1010 29.83 839 24.78 -4.4 24.1 50 -13.4 7.8
15:25 1010 29.83 839 24.78 -4.2 24.4 46 -14.3 6.3
15:30 1010 29.83 839 24.78 -4.1 24.7 45 -14.2 6.4
15:35 1010 29.83 839 24.78 -3.9 25 45 -14.2 6.5
15:40 1010 29.83 839 24.78 -3.8 25.2 44 -14.4 6
15:45 1010 29.83 839 24.78 -3.7 25.3 46 -13.8 7.2
15:50 1010 29.83 839 24.78 -3.8 25.2 45 -13.9 6.9
15:55 1010 29.83 839 24.78 -3.8 25.1 47 -13.6 7.5
16:00 1010 29.83 839 24.78 -3.9 25 46 -13.9 7.1
16:05 1010 29.83 839 24.78 -3.8 25.2 46 -13.8 7.2
16:10 1010 29.83 839 24.78 -3.8 25.1 47 -13.6 7.5
16:15 1010 29.83 839 24.78 -3.9 25 46 -14 6.8
16:20 1010 29.83 839 24.78 -3.9 24.9 46 -13.8 7.1
16:25 1010 29.83 839 24.78 -3.9 25.1 43 -14.7 5.5
16:30 1010 29.83 839 24.78 -3.8 25.2 42 -15 5.1
16:35 1010 29.83 839 24.78 -3.8 25.1 43 -14.6 5.7
16:40 1010 29.83 839 24.78 -3.8 25.1 45 -14.2 6.4
16:45 1010 29.83 839 24.78 -4 24.7 44 -14.5 5.9
16:50 1010 29.83 839 24.78 -4.3 24.2 44 -14.9 5.1
16:55 1010 29.83 839 24.78 -4.5 23.9 44 -15 5.1
17:00 1010 29.83 839 24.78 -4.6 23.7 44 -15 5.1
17:05 1010 29.83 839 24.78 -4.5 23.9 43 -15.2 4.6
17:10 1010 29.83 839 24.78 -4.5 23.9 42 -15.5 4
17:15 1010 29.83 839 24.78 -4.5 23.8 46 -14.6 5.8
17:20 1010 29.83 839 24.78 -4.7 23.5 44 -15.1 4.8
17:25 1010 29.83 839 24.78 -4.7 23.5 47 -14.3 6.3
17:30 1010 29.83 839 24.78 -4.9 23.1 51 -13.5 7.7
17:35 1010 29.83 839 24.78 -5.4 22.3 57 -12.7 9.1
17:40 1010 29.83 839 24.78 -5.7 21.8 57 -13 8.7
17:45 1010 29.83 839 24.78 -5.6 21.9 53 -13.7 7.3
17:50 1010 29.83 839 24.78 -5.5 22 59 -12.3 9.8
17:55 1010 29.83 839 24.78 -5.7 21.7 57 -12.9 8.8
18:00 1010 29.83 839 24.78 -5.9 21.3 51 -14.6 5.7
18:05 1009 29.8 839 24.78 -5.4 22.2 50 -14.4 6.1
18:10 1009 29.8 839 24.78 -5.2 22.6 51 -13.8 7.1
18:15 1009 29.8 839 24.78 -5 22.9 50 -13.9 6.9
18:20 1009 29.8 839 24.78 -5.2 22.7 51 -13.9 6.9
18:25 1009 29.8 839 24.78 -5.3 22.5 51 -14 6.8
18:30 1009 29.8 839 24.78 -5.3 22.4 52 -13.7 7.3
18:35 1009 29.8 839 24.78 -5.6 21.9 53 -13.8 7.1
18:40 1009 29.8 838 24.75 -5.6 21.9 53 -13.7 7.4
18:45 1009 29.8 838 24.75 -5.6 22 54 -13.6 7.6
18:50 1009 29.8 838 24.75 -5.8 21.6 53 -13.8 7.1
18:55 1009 29.8 838 24.75 -5.7 21.7 52 -14.1 6.6
19:00 1009 29.8 838 24.75 -5.5 22.1 49 -14.7 5.5
19:05 1009 29.8 838 24.75 -5.6 21.9 52 -14.1 6.7
19:10 1009 29.8 838 24.75 -5.7 21.7 52 -14.1 6.6
19:15 1009 29.8 838 24.75 -5.9 21.3 52 -14.2 6.4
19:20 1009 29.8 838 24.75 -6 21.2 52 -14.3 6.3
19:25 1009 29.8 838 24.75 -6 21.1 53 -14.2 6.5
19:30 1009 29.8 838 24.75 -6.2 20.9 56 -13.7 7.4
19:35 1009 29.8 838 24.75 -6.2 20.8 56 -13.6 7.6
19:40 1009 29.8 838 24.75 -6.3 20.7 50 -15.1 4.8
19:45 1009 29.8 838 24.75 -6.1 21.1 53 -14.3 6.3
19:50 1009 29.8 838 24.75 -6.2 20.9 51 -14.8 5.3
19:55 1009 29.8 838 24.75 -5.9 21.3 52 -14.2 6.4
20:00 1009 29.8 838 24.75 -6 21.2 49 -15 4.9
20:05 1009 29.8 838 24.75 -5.9 21.4 52 -14.2 6.5
20:10 1009 29.8 838 24.75 -6.2 20.9 53 -14.2 6.4
20:15 1009 29.8 838 24.75 -6.1 21 51 -14.7 5.6
20:20 1009 29.8 838 24.75 -6.1 20.9 55 -13.7 7.3
20:25 1009 29.8 838 24.75 -6.5 20.4 57 -13.6 7.6
20:30 1009 29.8 838 24.75 -6.6 20.2 57 -13.7 7.3
20:35 1009 29.8 838 24.75 -6.5 20.2 56 -13.9 7
20:40 1009 29.8 838 24.75 -6.6 20.1 61 -13 8.5
20:45 1009 29.8 838 24.75 -6.7 19.9 57 -13.9 6.9
20:50 1009 29.8 838 24.75 -6.6 20 59 -13.4 7.8
20:55 1009 29.8 838 24.75 -6.8 19.8 56 -14.1 6.6
21:00 1009 29.8 838 24.75 -6.4 20.5 54 -14.4 6.1
21:05 1009 29.8 838 24.75 -6.2 20.8 53 -14.3 6.3
21:10 1009 29.8 838 24.75 -6.2 20.9 53 -14.2 6.4
21:15 1009 29.8 839 24.78 -6.2 20.8 53 -14.4 6.1
21:20 1009 29.8 839 24.78 -6.2 20.8 54 -14.1 6.7
21:25 1009 29.8 839 24.78 -6.2 20.8 57 -13.4 7.9
21:30 1009 29.8 839 24.78 -6.4 20.5 52 -14.7 5.6
21:35 1009 29.8 838 24.75 -6 21.1 52 -14.4 6.1
21:40 1009 29.8 838 24.75 -6.1 21 53 -14.3 6.3
21:45 1009 29.8 838 24.75 -6.2 20.9 53 -14.2 6.4
21:50 1009 29.8 838 24.75 -6.4 20.5 57 -13.5 7.6
21:55 1009 29.8 839 24.78 -6.9 19.6 58 -13.9 7
22:00 1009 29.8 839 24.78 -7 19.4 56 -14.3 6.3
22:05 1009 29.8 839 24.78 -7 19.5 57 -14.2 6.4
22:10 1009 29.8 839 24.78 -7.1 19.3 57 -14.2 6.5
22:15 1009 29.8 839 24.78 -7.2 19 58 -14.1 6.6
22:20 1009 29.8 839 24.78 -7.2 19 59 -13.9 7
22:25 1009 29.8 839 24.78 -7.5 18.6 62 -13.5 7.8
22:30 1009 29.8 839 24.78 -7.7 18.1 60 -14.1 6.5
22:35 1010 29.83 839 24.78 -7.3 18.9 57 -14.4 6.1
22:40 1010 29.83 839 24.78 -7 19.3 55 -14.6 5.7
22:45 1010 29.83 839 24.78 -7.2 19.1 60 -13.8 7.2
22:50 1010 29.83 839 24.78 -7.3 18.8 58 -14.2 6.5
22:55 1010 29.83 839 24.78 -7.1 19.3 59 -13.7 7.3
23:00 1010 29.83 839 24.78 -7.3 18.9 60 -13.8 7.2
23:05 1010 29.83 839 24.78 -7.5 18.6 59 -14.2 6.5
23:10 1010 29.83 839 24.78 -7.2 19 61 -13.6 7.6
23:15 1010 29.83 839 24.78 -8 17.7 60 -14.4 6
23:20 1010 29.83 839 24.78 -7.7 18.2 56 -15.1 4.9
23:25 1010 29.83 839 24.78 -7.3 18.9 54 -15.1 4.9
23:30 1010 29.83 839 24.78 -7.3 18.9 55 -14.9 5.2
23:35 1010 29.83 839 24.78 -7.5 18.6 56 -14.9 5.2
23:40 1010 29.83 839 24.78 -7.5 18.5 55 -15.1 4.8
23:45 1010 29.83 839 24.78 -7.3 18.8 55 -14.9 5.2
23:50 1010 29.83 839 24.78 -7.3 18.8 57 -14.4 6
23:55 1010 29.83 839 24.78 -7.4 18.7 56 -14.8 5.4
24:00 1010 29.83 839 24.78 -7.2 19 54 -14.9 5.1